Aladdin, Wyoming
Current Conditions -  °F | °C
As of 11:55 PM on Friday 31 Oct 2014 (Local Time) from KW43 Reporting Station
Clear Clear  
Wind Chill: 54°   Ceiling: Unl
Heat Index: 54°   Visibility: 10mi
Dew Point: 30°   Wind: 8mph
Humidity: 41%   Direction: 230°SW
Pressure: 29.85"   Gusts: NA
Location:  44.64°N, 104.18°W
Report Text: KW43 010555Z AUTO 23007KT 10SM CLR 12/M01 A2985 RMK AO2
Loading
Personal Weather Stations






























Interactive Weather Map
Tropical Storm Tracking
New forecast layout! Learn more

10-Day Weather Forecast

Advertisements
Track Severe Weather on mobile